sensor_id;sensor_type;location;lat;lon;timestamp;P1;durP1;ratioP1;P2;durP2;ratioP2
66893;SDS011;53801;55.786;49.142;2023-09-19T00:00:21;3.70;;;1.90;;
66893;SDS011;53801;55.786;49.142;2023-09-19T00:02:52;4.60;;;2.42;;
66893;SDS011;53801;55.786;49.142;2023-09-19T00:05:18;3.97;;;2.10;;
66893;SDS011;53801;55.786;49.142;2023-09-19T00:07:44;3.92;;;2.00;;
66893;SDS011;53801;55.786;49.142;2023-09-19T00:10:10;4.75;;;2.20;;
66893;SDS011;53801;55.786;49.142;2023-09-19T00:12:35;4.77;;;2.10;;
66893;SDS011;53801;55.786;49.142;2023-09-19T00:15:01;4.30;;;2.10;;
66893;SDS011;53801;55.786;49.142;2023-09-19T00:17:30;5.18;;;2.10;;
66893;SDS011;53801;55.786;49.142;2023-09-19T00:19:57;5.28;;;2.33;;
66893;SDS011;53801;55.786;49.142;2023-09-19T00:22:22;3.10;;;1.73;;
66893;SDS011;53801;55.786;49.142;2023-09-19T00:24:51;3.72;;;1.90;;
66893;SDS011;53801;55.786;49.142;2023-09-19T00:27:17;5.45;;;2.22;;
66893;SDS011;53801;55.786;49.142;2023-09-19T00:29:43;3.85;;;1.85;;
66893;SDS011;53801;55.786;49.142;2023-09-19T00:32:09;5.38;;;1.80;;
66893;SDS011;53801;55.786;49.142;2023-09-19T00:34:34;3.90;;;1.90;;
66893;SDS011;53801;55.786;49.142;2023-09-19T00:37:00;4.15;;;1.70;;
66893;SDS011;53801;55.786;49.142;2023-09-19T00:39:26;3.33;;;1.77;;
66893;SDS011;53801;55.786;49.142;2023-09-19T00:42:00;3.65;;;1.50;;
66893;SDS011;53801;55.786;49.142;2023-09-19T00:44:30;4.73;;;2.00;;
66893;SDS011;53801;55.786;49.142;2023-09-19T00:46:55;4.38;;;1.70;;
66893;SDS011;53801;55.786;49.142;2023-09-19T00:49:21;3.23;;;1.40;;
66893;SDS011;53801;55.786;49.142;2023-09-19T00:51:48;7.68;;;2.20;;
66893;SDS011;53801;55.786;49.142;2023-09-19T00:54:14;4.70;;;1.58;;
66893;SDS011;53801;55.786;49.142;2023-09-19T00:56:44;4.73;;;1.80;;
66893;SDS011;53801;55.786;49.142;2023-09-19T00:59:10;5.20;;;1.65;;
66893;SDS011;53801;55.786;49.142;2023-09-19T01:01:37;3.08;;;1.40;;
66893;SDS011;53801;55.786;49.142;2023-09-19T01:04:05;3.53;;;1.77;;
66893;SDS011;53801;55.786;49.142;2023-09-19T01:06:30;4.38;;;1.70;;
66893;SDS011;53801;55.786;49.142;2023-09-19T01:08:56;3.97;;;1.70;;
66893;SDS011;53801;55.786;49.142;2023-09-19T01:11:30;4.43;;;1.75;;
66893;SDS011;53801;55.786;49.142;2023-09-19T01:14:01;3.90;;;1.60;;
66893;SDS011;53801;55.786;49.142;2023-09-19T01:16:31;3.55;;;1.63;;
66893;SDS011;53801;55.786;49.142;2023-09-19T01:32:01;5.90;;;1.37;;
66893;SDS011;53801;55.786;49.142;2023-09-19T01:34:47;2.92;;;1.40;;
66893;SDS011;53801;55.786;49.142;2023-09-19T01:37:14;4.85;;;1.50;;
66893;SDS011;53801;55.786;49.142;2023-09-19T01:39:43;2.97;;;1.50;;
66893;SDS011;53801;55.786;49.142;2023-09-19T01:42:16;5.03;;;1.57;;
66893;SDS011;53801;55.786;49.142;2023-09-19T01:47:17;4.87;;;1.27;;
66893;SDS011;53801;55.786;49.142;2023-09-19T01:49:50;4.78;;;1.65;;
66893;SDS011;53801;55.786;49.142;2023-09-19T01:52:21;4.53;;;1.50;;
66893;SDS011;53801;55.786;49.142;2023-09-19T01:54:50;4.03;;;1.40;;
66893;SDS011;53801;55.786;49.142;2023-09-19T01:57:29;2.63;;;1.40;;
66893;SDS011;53801;55.786;49.142;2023-09-19T02:00:05;2.55;;;1.60;;
66893;SDS011;53801;55.786;49.142;2023-09-19T02:02:38;4.80;;;1.33;;
66893;SDS011;53801;55.786;49.142;2023-09-19T02:05:05;4.93;;;1.42;;
66893;SDS011;53801;55.786;49.142;2023-09-19T02:07:31;3.65;;;1.27;;
66893;SDS011;53801;55.786;49.142;2023-09-19T02:09:57;3.50;;;1.30;;
66893;SDS011;53801;55.786;49.142;2023-09-19T02:12:24;2.55;;;1.30;;
66893;SDS011;53801;55.786;49.142;2023-09-19T02:14:50;2.87;;;1.30;;
66893;SDS011;53801;55.786;49.142;2023-09-19T02:17:15;3.60;;;1.33;;
66893;SDS011;53801;55.786;49.142;2023-09-19T02:19:43;5.22;;;1.50;;
66893;SDS011;53801;55.786;49.142;2023-09-19T02:22:08;2.65;;;1.38;;
66893;SDS011;53801;55.786;49.142;2023-09-19T02:24:38;2.35;;;1.27;;
66893;SDS011;53801;55.786;49.142;2023-09-19T02:27:04;2.85;;;1.33;;
66893;SDS011;53801;55.786;49.142;2023-09-19T02:29:30;2.83;;;1.10;;
66893;SDS011;53801;55.786;49.142;2023-09-19T02:31:55;2.80;;;1.23;;
66893;SDS011;53801;55.786;49.142;2023-09-19T02:34:21;3.87;;;1.20;;
66893;SDS011;53801;55.786;49.142;2023-09-19T02:36:47;4.85;;;1.85;;
66893;SDS011;53801;55.786;49.142;2023-09-19T02:39:12;2.67;;;1.23;;
66893;SDS011;53801;55.786;49.142;2023-09-19T02:41:38;3.80;;;1.30;;
66893;SDS011;53801;55.786;49.142;2023-09-19T02:44:04;2.92;;;1.25;;
66893;SDS011;53801;55.786;49.142;2023-09-19T02:46:33;5.53;;;1.63;;
66893;SDS011;53801;55.786;49.142;2023-09-19T02:48:58;3.97;;;1.40;;
66893;SDS011;53801;55.786;49.142;2023-09-19T02:51:24;4.60;;;1.30;;
66893;SDS011;53801;55.786;49.142;2023-09-19T02:53:50;3.13;;;1.50;;
66893;SDS011;53801;55.786;49.142;2023-09-19T02:56:17;2.40;;;1.35;;
66893;SDS011;53801;55.786;49.142;2023-09-19T02:58:43;3.60;;;1.35;;
66893;SDS011;53801;55.786;49.142;2023-09-19T03:01:12;3.33;;;1.20;;
66893;SDS011;53801;55.786;49.142;2023-09-19T03:03:37;7.38;;;1.30;;
66893;SDS011;53801;55.786;49.142;2023-09-19T03:06:05;3.03;;;1.00;;
66893;SDS011;53801;55.786;49.142;2023-09-19T03:08:31;23.30;;;3.85;;
66893;SDS011;53801;55.786;49.142;2023-09-19T03:10:57;6.35;;;1.20;;
66893;SDS011;53801;55.786;49.142;2023-09-19T03:13:22;4.47;;;1.10;;
66893;SDS011;53801;55.786;49.142;2023-09-19T03:15:47;4.57;;;1.20;;
66893;SDS011;53801;55.786;49.142;2023-09-19T03:18:15;2.88;;;1.08;;
66893;SDS011;53801;55.786;49.142;2023-09-19T03:20:41;3.23;;;1.10;;
66893;SDS011;53801;55.786;49.142;2023-09-19T03:23:06;3.23;;;1.00;;
66893;SDS011;53801;55.786;49.142;2023-09-19T03:25:36;8.90;;;1.52;;
66893;SDS011;53801;55.786;49.142;2023-09-19T03:28:02;3.55;;;1.20;;
66893;SDS011;53801;55.786;49.142;2023-09-19T03:30:31;3.90;;;1.08;;
66893;SDS011;53801;55.786;49.142;2023-09-19T03:32:56;2.17;;;1.23;;
66893;SDS011;53801;55.786;49.142;2023-09-19T03:35:22;3.28;;;0.90;;
66893;SDS011;53801;55.786;49.142;2023-09-19T03:37:47;16.25;;;2.10;;
66893;SDS011;53801;55.786;49.142;2023-09-19T03:40:13;3.40;;;1.03;;
66893;SDS011;53801;55.786;49.142;2023-09-19T03:42:39;2.22;;;1.20;;
66893;SDS011;53801;55.786;49.142;2023-09-19T03:45:06;1.67;;;0.90;;
66893;SDS011;53801;55.786;49.142;2023-09-19T03:47:33;2.42;;;0.85;;
66893;SDS011;53801;55.786;49.142;2023-09-19T03:49:58;3.13;;;1.20;;
66893;SDS011;53801;55.786;49.142;2023-09-19T03:52:23;4.93;;;0.93;;
66893;SDS011;53801;55.786;49.142;2023-09-19T03:54:50;5.40;;;1.30;;
66893;SDS011;53801;55.786;49.142;2023-09-19T03:57:15;2.93;;;1.13;;
66893;SDS011;53801;55.786;49.142;2023-09-19T03:59:45;4.20;;;1.10;;
66893;SDS011;53801;55.786;49.142;2023-09-19T04:02:11;3.70;;;1.20;;
66893;SDS011;53801;55.786;49.142;2023-09-19T04:04:50;4.38;;;1.20;;
66893;SDS011;53801;55.786;49.142;2023-09-19T04:07:16;4.43;;;1.20;;
66893;SDS011;53801;55.786;49.142;2023-09-19T04:09:42;4.68;;;1.20;;
66893;SDS011;53801;55.786;49.142;2023-09-19T04:12:07;7.50;;;2.10;;
66893;SDS011;53801;55.786;49.142;2023-09-19T04:14:36;3.17;;;1.70;;
66893;SDS011;53801;55.786;49.142;2023-09-19T04:17:02;10.30;;;1.70;;
66893;SDS011;53801;55.786;49.142;2023-09-19T04:19:28;4.40;;;1.25;;
66893;SDS011;53801;55.786;49.142;2023-09-19T04:21:53;4.33;;;1.47;;
66893;SDS011;53801;55.786;49.142;2023-09-19T04:24:19;5.23;;;4.03;;
66893;SDS011;53801;55.786;49.142;2023-09-19T04:26:45;3.15;;;1.50;;
66893;SDS011;53801;55.786;49.142;2023-09-19T04:29:10;3.00;;;1.70;;
66893;SDS011;53801;55.786;49.142;2023-09-19T04:31:36;4.60;;;2.03;;
66893;SDS011;53801;55.786;49.142;2023-09-19T04:34:03;4.87;;;1.90;;
66893;SDS011;53801;55.786;49.142;2023-09-19T04:36:28;5.47;;;1.48;;
66893;SDS011;53801;55.786;49.142;2023-09-19T04:38:55;3.08;;;1.70;;
66893;SDS011;53801;55.786;49.142;2023-09-19T04:41:20;2.93;;;1.57;;
66893;SDS011;53801;55.786;49.142;2023-09-19T04:43:47;5.13;;;1.45;;
66893;SDS011;53801;55.786;49.142;2023-09-19T04:46:14;4.63;;;1.63;;
66893;SDS011;53801;55.786;49.142;2023-09-19T04:48:40;4.60;;;2.10;;
66893;SDS011;53801;55.786;49.142;2023-09-19T04:51:06;4.75;;;2.70;;
66893;SDS011;53801;55.786;49.142;2023-09-19T04:53:43;4.13;;;1.67;;
66893;SDS011;53801;55.786;49.142;2023-09-19T04:56:09;3.45;;;2.00;;
66893;SDS011;53801;55.786;49.142;2023-09-19T04:58:34;7.27;;;2.77;;
66893;SDS011;53801;55.786;49.142;2023-09-19T05:01:00;10.27;;;2.50;;
66893;SDS011;53801;55.786;49.142;2023-09-19T05:03:29;4.75;;;2.10;;
66893;SDS011;53801;55.786;49.142;2023-09-19T05:05:55;3.20;;;1.98;;
66893;SDS011;53801;55.786;49.142;2023-09-19T05:08:20;2.57;;;2.00;;
66893;SDS011;53801;55.786;49.142;2023-09-19T05:10:47;4.43;;;2.40;;
66893;SDS011;53801;55.786;49.142;2023-09-19T05:13:14;4.97;;;2.50;;
66893;SDS011;53801;55.786;49.142;2023-09-19T05:15:39;3.67;;;2.17;;
66893;SDS011;53801;55.786;49.142;2023-09-19T05:18:05;6.82;;;2.47;;
66893;SDS011;53801;55.786;49.142;2023-09-19T05:20:32;4.63;;;2.63;;
66893;SDS011;53801;55.786;49.142;2023-09-19T05:22:59;5.93;;;2.80;;
66893;SDS011;53801;55.786;49.142;2023-09-19T05:25:27;3.33;;;2.60;;
66893;SDS011;53801;55.786;49.142;2023-09-19T05:27:56;6.38;;;3.17;;
66893;SDS011;53801;55.786;49.142;2023-09-19T05:30:23;3.08;;;2.78;;
66893;SDS011;53801;55.786;49.142;2023-09-19T05:32:48;4.70;;;3.00;;
66893;SDS011;53801;55.786;49.142;2023-09-19T05:35:13;7.18;;;3.60;;
66893;SDS011;53801;55.786;49.142;2023-09-19T05:37:39;3.77;;;3.40;;
66893;SDS011;53801;55.786;49.142;2023-09-19T05:40:04;11.80;;;8.47;;
66893;SDS011;53801;55.786;49.142;2023-09-19T05:42:37;2.97;;;1.80;;
66893;SDS011;53801;55.786;49.142;2023-09-19T05:45:04;4.20;;;1.73;;
66893;SDS011;53801;55.786;49.142;2023-09-19T05:47:31;3.60;;;1.90;;
66893;SDS011;53801;55.786;49.142;2023-09-19T05:49:57;3.47;;;2.55;;
66893;SDS011;53801;55.786;49.142;2023-09-19T05:52:22;5.60;;;3.43;;
66893;SDS011;53801;55.786;49.142;2023-09-19T05:54:48;5.97;;;3.13;;
66893;SDS011;53801;55.786;49.142;2023-09-19T05:57:14;5.63;;;3.60;;
66893;SDS011;53801;55.786;49.142;2023-09-19T05:59:40;4.18;;;3.10;;
66893;SDS011;53801;55.786;49.142;2023-09-19T06:02:08;3.20;;;2.95;;
66893;SDS011;53801;55.786;49.142;2023-09-19T06:04:35;4.38;;;3.40;;
66893;SDS011;53801;55.786;49.142;2023-09-19T06:07:00;4.28;;;3.40;;
66893;SDS011;53801;55.786;49.142;2023-09-19T06:09:27;3.47;;;3.20;;
66893;SDS011;53801;55.786;49.142;2023-09-19T06:11:54;3.95;;;3.60;;
66893;SDS011;53801;55.786;49.142;2023-09-19T06:14:20;7.25;;;4.30;;
66893;SDS011;53801;55.786;49.142;2023-09-19T06:16:48;5.85;;;4.25;;
66893;SDS011;53801;55.786;49.142;2023-09-19T06:19:14;3.80;;;3.50;;
66893;SDS011;53801;55.786;49.142;2023-09-19T06:21:39;5.40;;;3.80;;
66893;SDS011;53801;55.786;49.142;2023-09-19T06:24:05;4.03;;;3.73;;
66893;SDS011;53801;55.786;49.142;2023-09-19T06:30:20;4.10;;;3.70;;
66893;SDS011;53801;55.786;49.142;2023-09-19T06:32:55;4.32;;;3.92;;
66893;SDS011;53801;55.786;49.142;2023-09-19T06:35:20;6.90;;;6.20;;
66893;SDS011;53801;55.786;49.142;2023-09-19T06:37:46;7.28;;;5.90;;
66893;SDS011;53801;55.786;49.142;2023-09-19T06:40:13;7.10;;;4.30;;
66893;SDS011;53801;55.786;49.142;2023-09-19T06:42:40;4.50;;;4.20;;
66893;SDS011;53801;55.786;49.142;2023-09-19T06:45:06;4.40;;;4.00;;
66893;SDS011;53801;55.786;49.142;2023-09-19T06:47:32;4.32;;;4.03;;
66893;SDS011;53801;55.786;49.142;2023-09-19T06:49:57;4.60;;;4.20;;
66893;SDS011;53801;55.786;49.142;2023-09-19T06:52:23;4.57;;;4.18;;
66893;SDS011;53801;55.786;49.142;2023-09-19T06:54:48;4.23;;;3.40;;
66893;SDS011;53801;55.786;49.142;2023-09-19T06:57:16;5.50;;;2.70;;
66893;SDS011;53801;55.786;49.142;2023-09-19T06:59:41;4.20;;;3.80;;
66893;SDS011;53801;55.786;49.142;2023-09-19T07:02:09;5.32;;;3.78;;
66893;SDS011;53801;55.786;49.142;2023-09-19T07:04:35;6.70;;;4.32;;
66893;SDS011;53801;55.786;49.142;2023-09-19T07:07:00;5.13;;;4.10;;
66893;SDS011;53801;55.786;49.142;2023-09-19T07:09:26;3.00;;;2.70;;
66893;SDS011;53801;55.786;49.142;2023-09-19T07:11:54;5.07;;;4.45;;
66893;SDS011;53801;55.786;49.142;2023-09-19T07:14:19;5.38;;;4.63;;
66893;SDS011;53801;55.786;49.142;2023-09-19T07:16:44;4.73;;;4.40;;
66893;SDS011;53801;55.786;49.142;2023-09-19T07:19:10;4.45;;;4.05;;
66893;SDS011;53801;55.786;49.142;2023-09-19T07:21:39;4.57;;;4.17;;
66893;SDS011;53801;55.786;49.142;2023-09-19T07:24:04;4.70;;;4.30;;
66893;SDS011;53801;55.786;49.142;2023-09-19T07:26:30;4.55;;;4.15;;
66893;SDS011;53801;55.786;49.142;2023-09-19T07:28:56;5.80;;;5.30;;
66893;SDS011;53801;55.786;49.142;2023-09-19T07:31:23;5.28;;;4.32;;
66893;SDS011;53801;55.786;49.142;2023-09-19T07:33:50;3.78;;;3.38;;
66893;SDS011;53801;55.786;49.142;2023-09-19T07:36:16;4.65;;;4.20;;
66893;SDS011;53801;55.786;49.142;2023-09-19T07:38:42;4.80;;;4.40;;
66893;SDS011;53801;55.786;49.142;2023-09-19T07:41:16;4.67;;;4.27;;
66893;SDS011;53801;55.786;49.142;2023-09-19T07:43:49;4.57;;;4.10;;
66893;SDS011;53801;55.786;49.142;2023-09-19T07:46:14;4.80;;;4.40;;
66893;SDS011;53801;55.786;49.142;2023-09-19T07:48:40;5.63;;;5.07;;
66893;SDS011;53801;55.786;49.142;2023-09-19T07:51:09;4.80;;;4.40;;
66893;SDS011;53801;55.786;49.142;2023-09-19T07:53:39;5.35;;;4.80;;
66893;SDS011;53801;55.786;49.142;2023-09-19T07:56:07;4.95;;;4.55;;
66893;SDS011;53801;55.786;49.142;2023-09-19T07:58:34;5.00;;;4.50;;
66893;SDS011;53801;55.786;49.142;2023-09-19T08:01:16;5.00;;;4.50;;
66893;SDS011;53801;55.786;49.142;2023-09-19T08:03:51;5.13;;;4.63;;
66893;SDS011;53801;55.786;49.142;2023-09-19T08:06:17;6.95;;;5.07;;
66893;SDS011;53801;55.786;49.142;2023-09-19T08:08:45;6.80;;;4.03;;
66893;SDS011;53801;55.786;49.142;2023-09-19T08:11:11;5.47;;;4.03;;
66893;SDS011;53801;55.786;49.142;2023-09-19T08:13:40;7.82;;;5.63;;
66893;SDS011;53801;55.786;49.142;2023-09-19T08:16:12;7.75;;;4.47;;
66893;SDS011;53801;55.786;49.142;2023-09-19T08:18:40;5.05;;;3.83;;
66893;SDS011;53801;55.786;49.142;2023-09-19T08:21:06;5.10;;;4.40;;
66893;SDS011;53801;55.786;49.142;2023-09-19T08:23:37;4.22;;;3.83;;
66893;SDS011;53801;55.786;49.142;2023-09-19T08:26:04;4.72;;;4.32;;
66893;SDS011;53801;55.786;49.142;2023-09-19T08:28:35;4.45;;;3.80;;
66893;SDS011;53801;55.786;49.142;2023-09-19T08:31:02;4.78;;;3.63;;
66893;SDS011;53801;55.786;49.142;2023-09-19T08:33:31;4.60;;;4.00;;
66893;SDS011;53801;55.786;49.142;2023-09-19T08:35:56;4.38;;;4.07;;
66893;SDS011;53801;55.786;49.142;2023-09-19T08:38:22;4.30;;;4.00;;
66893;SDS011;53801;55.786;49.142;2023-09-19T08:40:47;5.20;;;4.45;;
66893;SDS011;53801;55.786;49.142;2023-09-19T08:43:13;5.67;;;4.30;;
66893;SDS011;53801;55.786;49.142;2023-09-19T08:45:38;4.80;;;4.40;;
66893;SDS011;53801;55.786;49.142;2023-09-19T08:50:31;4.45;;;3.65;;
66893;SDS011;53801;55.786;49.142;2023-09-19T08:55:35;5.10;;;4.60;;
66893;SDS011;53801;55.786;49.142;2023-09-19T08:58:01;5.47;;;4.20;;
66893;SDS011;53801;55.786;49.142;2023-09-19T09:00:30;4.75;;;4.32;;
66893;SDS011;53801;55.786;49.142;2023-09-19T09:03:03;4.40;;;4.10;;
66893;SDS011;53801;55.786;49.142;2023-09-19T09:05:29;4.50;;;4.10;;
66893;SDS011;53801;55.786;49.142;2023-09-19T09:07:55;5.32;;;3.90;;
66893;SDS011;53801;55.786;49.142;2023-09-19T09:13:02;4.97;;;3.85;;
66893;SDS011;53801;55.786;49.142;2023-09-19T09:15:34;7.35;;;3.88;;
66893;SDS011;53801;55.786;49.142;2023-09-19T09:18:03;5.63;;;3.97;;
66893;SDS011;53801;55.786;49.142;2023-09-19T09:20:30;5.20;;;4.57;;
66893;SDS011;53801;55.786;49.142;2023-09-19T09:22:56;4.73;;;4.30;;
66893;SDS011;53801;55.786;49.142;2023-09-19T09:28:09;5.65;;;4.40;;
66893;SDS011;53801;55.786;49.142;2023-09-19T09:33:35;9.02;;;4.60;;
66893;SDS011;53801;55.786;49.142;2023-09-19T09:36:01;5.03;;;4.22;;
66893;SDS011;53801;55.786;49.142;2023-09-19T09:38:47;7.47;;;4.47;;
66893;SDS011;53801;55.786;49.142;2023-09-19T09:41:15;4.35;;;3.97;;
66893;SDS011;53801;55.786;49.142;2023-09-19T09:43:55;4.22;;;3.92;;
66893;SDS011;53801;55.786;49.142;2023-09-19T09:46:21;5.10;;;4.60;;
66893;SDS011;53801;55.786;49.142;2023-09-19T09:48:47;4.47;;;4.15;;
66893;SDS011;53801;55.786;49.142;2023-09-19T09:51:33;6.10;;;5.60;;
66893;SDS011;53801;55.786;49.142;2023-09-19T09:56:59;5.85;;;4.88;;
66893;SDS011;53801;55.786;49.142;2023-09-19T09:59:43;4.63;;;4.22;;
66893;SDS011;53801;55.786;49.142;2023-09-19T10:02:18;4.38;;;3.97;;
66893;SDS011;53801;55.786;49.142;2023-09-19T10:04:51;4.05;;;3.65;;
66893;SDS011;53801;55.786;49.142;2023-09-19T10:09:52;4.00;;;3.70;;
66893;SDS011;53801;55.786;49.142;2023-09-19T10:12:21;4.13;;;3.67;;
66893;SDS011;53801;55.786;49.142;2023-09-19T10:14:52;4.50;;;3.90;;
66893;SDS011;53801;55.786;49.142;2023-09-19T10:17:18;6.40;;;3.78;;
66893;SDS011;53801;55.786;49.142;2023-09-19T10:19:56;4.00;;;3.45;;
66893;SDS011;53801;55.786;49.142;2023-09-19T10:22:24;4.20;;;3.80;;
66893;SDS011;53801;55.786;49.142;2023-09-19T10:24:55;4.05;;;3.65;;
66893;SDS011;53801;55.786;49.142;2023-09-19T10:27:22;5.47;;;3.80;;
66893;SDS011;53801;55.786;49.142;2023-09-19T10:29:52;4.28;;;3.85;;
66893;SDS011;53801;55.786;49.142;2023-09-19T10:32:22;3.60;;;3.30;;
66893;SDS011;53801;55.786;49.142;2023-09-19T10:34:49;4.03;;;3.63;;
66893;SDS011;53801;55.786;49.142;2023-09-19T10:37:17;5.80;;;3.60;;
66893;SDS011;53801;55.786;49.142;2023-09-19T10:39:50;3.28;;;2.97;;
66893;SDS011;53801;55.786;49.142;2023-09-19T10:42:18;8.80;;;3.63;;
66893;SDS011;53801;55.786;49.142;2023-09-19T10:44:45;4.35;;;3.00;;
66893;SDS011;53801;55.786;49.142;2023-09-19T10:47:12;3.17;;;2.88;;
66893;SDS011;53801;55.786;49.142;2023-09-19T10:49:45;3.70;;;2.80;;
66893;SDS011;53801;55.786;49.142;2023-09-19T10:52:17;3.75;;;2.20;;
66893;SDS011;53801;55.786;49.142;2023-09-19T10:54:46;3.00;;;1.92;;
66893;SDS011;53801;55.786;49.142;2023-09-19T10:57:25;4.57;;;1.50;;
66893;SDS011;53801;55.786;49.142;2023-09-19T11:00:00;5.40;;;1.58;;
66893;SDS011;53801;55.786;49.142;2023-09-19T11:02:29;2.78;;;1.30;;
66893;SDS011;53801;55.786;49.142;2023-09-19T11:04:54;3.90;;;1.50;;
66893;SDS011;53801;55.786;49.142;2023-09-19T11:07:56;4.07;;;1.65;;
66893;SDS011;53801;55.786;49.142;2023-09-19T11:10:54;4.20;;;1.20;;
66893;SDS011;53801;55.786;49.142;2023-09-19T11:13:26;4.20;;;1.27;;
66893;SDS011;53801;55.786;49.142;2023-09-19T11:23:58;2.93;;;0.87;;
66893;SDS011;53801;55.786;49.142;2023-09-19T11:26:40;4.30;;;1.08;;
66893;SDS011;53801;55.786;49.142;2023-09-19T11:29:28;6.03;;;1.50;;
66893;SDS011;53801;55.786;49.142;2023-09-19T11:31:54;2.30;;;0.90;;
66893;SDS011;53801;55.786;49.142;2023-09-19T11:42:45;2.85;;;1.10;;
66893;SDS011;53801;55.786;49.142;2023-09-19T11:47:57;1.65;;;0.90;;
66893;SDS011;53801;55.786;49.142;2023-09-19T11:50:23;5.05;;;1.20;;
66893;SDS011;53801;55.786;49.142;2023-09-19T11:52:49;2.42;;;1.00;;
66893;SDS011;53801;55.786;49.142;2023-09-19T11:55:16;6.32;;;1.15;;
66893;SDS011;53801;55.786;49.142;2023-09-19T11:57:47;3.30;;;0.90;;
66893;SDS011;53801;55.786;49.142;2023-09-19T12:00:19;2.30;;;0.80;;
66893;SDS011;53801;55.786;49.142;2023-09-19T12:02:46;3.00;;;0.90;;
66893;SDS011;53801;55.786;49.142;2023-09-19T12:05:13;2.00;;;0.73;;
66893;SDS011;53801;55.786;49.142;2023-09-19T12:07:43;2.65;;;0.85;;
66893;SDS011;53801;55.786;49.142;2023-09-19T12:10:13;5.87;;;1.20;;
66893;SDS011;53801;55.786;49.142;2023-09-19T12:12:47;4.15;;;1.33;;
66893;SDS011;53801;55.786;49.142;2023-09-19T12:15:24;5.53;;;1.33;;
66893;SDS011;53801;55.786;49.142;2023-09-19T12:18:00;5.45;;;0.95;;
66893;SDS011;53801;55.786;49.142;2023-09-19T12:20:26;2.90;;;0.90;;
66893;SDS011;53801;55.786;49.142;2023-09-19T12:23:06;1.63;;;0.70;;
66893;SDS011;53801;55.786;49.142;2023-09-19T12:25:42;2.58;;;0.80;;
66893;SDS011;53801;55.786;49.142;2023-09-19T12:28:14;3.40;;;0.80;;
66893;SDS011;53801;55.786;49.142;2023-09-19T12:30:42;3.22;;;1.58;;
66893;SDS011;53801;55.786;49.142;2023-09-19T12:33:17;4.37;;;1.77;;
66893;SDS011;53801;55.786;49.142;2023-09-19T12:35:46;2.63;;;1.02;;
66893;SDS011;53801;55.786;49.142;2023-09-19T12:38:28;3.28;;;0.93;;
66893;SDS011;53801;55.786;49.142;2023-09-19T12:41:06;2.93;;;0.93;;
66893;SDS011;53801;55.786;49.142;2023-09-19T12:43:41;1.83;;;0.88;;
66893;SDS011;53801;55.786;49.142;2023-09-19T12:46:10;6.93;;;1.30;;
66893;SDS011;53801;55.786;49.142;2023-09-19T12:48:38;6.00;;;1.07;;
66893;SDS011;53801;55.786;49.142;2023-09-19T12:51:10;2.40;;;0.70;;
66893;SDS011;53801;55.786;49.142;2023-09-19T12:53:38;2.33;;;0.95;;
66893;SDS011;53801;55.786;49.142;2023-09-19T12:56:15;3.00;;;1.00;;
66893;SDS011;53801;55.786;49.142;2023-09-19T12:58:55;5.50;;;1.55;;
66893;SDS011;53801;55.786;49.142;2023-09-19T13:01:21;2.63;;;0.70;;
66893;SDS011;53801;55.786;49.142;2023-09-19T13:04:16;4.03;;;0.95;;
66893;SDS011;53801;55.786;49.142;2023-09-19T13:06:46;4.18;;;0.85;;
66893;SDS011;53801;55.786;49.142;2023-09-19T13:09:17;2.10;;;0.70;;
66893;SDS011;53801;55.786;49.142;2023-09-19T13:11:43;4.85;;;1.00;;
66893;SDS011;53801;55.786;49.142;2023-09-19T13:14:18;7.20;;;0.90;;
66893;SDS011;53801;55.786;49.142;2023-09-19T13:17:06;3.22;;;0.88;;
66893;SDS011;53801;55.786;49.142;2023-09-19T13:19:45;4.03;;;0.80;;
66893;SDS011;53801;55.786;49.142;2023-09-19T13:22:40;4.60;;;0.77;;
66893;SDS011;53801;55.786;49.142;2023-09-19T13:25:12;4.45;;;0.95;;
66893;SDS011;53801;55.786;49.142;2023-09-19T13:27:53;3.93;;;1.00;;
66893;SDS011;53801;55.786;49.142;2023-09-19T13:35:35;2.60;;;1.15;;
66893;SDS011;53801;55.786;49.142;2023-09-19T13:38:04;1.67;;;0.60;;
66893;SDS011;53801;55.786;49.142;2023-09-19T13:40:32;3.50;;;0.73;;
66893;SDS011;53801;55.786;49.142;2023-09-19T13:43:00;4.70;;;1.15;;
66893;SDS011;53801;55.786;49.142;2023-09-19T13:45:26;4.10;;;1.00;;
66893;SDS011;53801;55.786;49.142;2023-09-19T13:47:54;3.00;;;0.98;;
66893;SDS011;53801;55.786;49.142;2023-09-19T13:50:20;8.23;;;1.10;;
66893;SDS011;53801;55.786;49.142;2023-09-19T13:52:52;2.50;;;0.90;;
66893;SDS011;53801;55.786;49.142;2023-09-19T13:55:19;2.20;;;0.70;;
66893;SDS011;53801;55.786;49.142;2023-09-19T13:57:52;3.63;;;0.90;;
66893;SDS011;53801;55.786;49.142;2023-09-19T14:00:29;2.27;;;1.07;;
66893;SDS011;53801;55.786;49.142;2023-09-19T14:02:54;5.80;;;2.15;;
66893;SDS011;53801;55.786;49.142;2023-09-19T14:05:21;4.05;;;1.70;;
66893;SDS011;53801;55.786;49.142;2023-09-19T14:07:46;2.50;;;0.80;;
66893;SDS011;53801;55.786;49.142;2023-09-19T14:10:12;2.80;;;0.70;;
66893;SDS011;53801;55.786;49.142;2023-09-19T14:12:38;8.47;;;1.00;;
66893;SDS011;53801;55.786;49.142;2023-09-19T14:15:06;6.50;;;1.40;;
66893;SDS011;53801;55.786;49.142;2023-09-19T14:17:32;7.78;;;1.45;;
66893;SDS011;53801;55.786;49.142;2023-09-19T14:19:58;5.47;;;1.50;;
66893;SDS011;53801;55.786;49.142;2023-09-19T14:22:26;12.15;;;4.45;;
66893;SDS011;53801;55.786;49.142;2023-09-19T14:24:52;4.18;;;1.63;;
66893;SDS011;53801;55.786;49.142;2023-09-19T14:27:18;5.00;;;1.10;;
66893;SDS011;53801;55.786;49.142;2023-09-19T14:29:44;3.38;;;1.17;;
66893;SDS011;53801;55.786;49.142;2023-09-19T14:32:10;4.97;;;1.30;;
66893;SDS011;53801;55.786;49.142;2023-09-19T14:34:36;3.72;;;0.88;;
66893;SDS011;53801;55.786;49.142;2023-09-19T14:37:07;5.93;;;1.13;;
66893;SDS011;53801;55.786;49.142;2023-09-19T14:42:05;3.63;;;1.23;;
66893;SDS011;53801;55.786;49.142;2023-09-19T14:44:31;3.67;;;1.00;;
66893;SDS011;53801;55.786;49.142;2023-09-19T14:46:56;3.40;;;1.20;;
66893;SDS011;53801;55.786;49.142;2023-09-19T14:49:22;3.60;;;1.30;;
66893;SDS011;53801;55.786;49.142;2023-09-19T14:51:47;4.40;;;1.33;;
66893;SDS011;53801;55.786;49.142;2023-09-19T14:54:13;5.95;;;1.45;;
66893;SDS011;53801;55.786;49.142;2023-09-19T14:56:42;6.32;;;1.10;;
66893;SDS011;53801;55.786;49.142;2023-09-19T14:59:08;5.93;;;1.30;;
66893;SDS011;53801;55.786;49.142;2023-09-19T15:01:36;9.90;;;1.50;;
66893;SDS011;53801;55.786;49.142;2023-09-19T15:04:02;6.85;;;1.30;;
66893;SDS011;53801;55.786;49.142;2023-09-19T15:06:27;3.63;;;1.20;;
66893;SDS011;53801;55.786;49.142;2023-09-19T15:08:55;7.82;;;1.15;;
66893;SDS011;53801;55.786;49.142;2023-09-19T15:11:21;5.53;;;1.40;;
66893;SDS011;53801;55.786;49.142;2023-09-19T15:13:47;7.18;;;1.50;;
66893;SDS011;53801;55.786;49.142;2023-09-19T15:16:15;10.88;;;1.90;;
66893;SDS011;53801;55.786;49.142;2023-09-19T15:18:41;5.13;;;1.60;;
66893;SDS011;53801;55.786;49.142;2023-09-19T15:21:08;5.10;;;1.20;;
66893;SDS011;53801;55.786;49.142;2023-09-19T15:23:38;10.73;;;2.20;;
66893;SDS011;53801;55.786;49.142;2023-09-19T15:26:12;7.32;;;2.03;;
66893;SDS011;53801;55.786;49.142;2023-09-19T15:28:38;6.63;;;1.57;;
66893;SDS011;53801;55.786;49.142;2023-09-19T15:31:04;7.82;;;1.73;;
66893;SDS011;53801;55.786;49.142;2023-09-19T15:33:34;7.13;;;1.67;;
66893;SDS011;53801;55.786;49.142;2023-09-19T15:36:03;12.75;;;2.35;;
66893;SDS011;53801;55.786;49.142;2023-09-19T15:38:29;12.03;;;2.10;;
66893;SDS011;53801;55.786;49.142;2023-09-19T15:40:57;10.68;;;1.67;;
66893;SDS011;53801;55.786;49.142;2023-09-19T15:43:22;4.93;;;1.70;;
66893;SDS011;53801;55.786;49.142;2023-09-19T15:45:49;6.93;;;1.97;;